createdAt,value
2023-02-16T00:00:30.530Z,66.71
2023-02-16T00:02:59.565Z,66.93
2023-02-16T00:05:31.327Z,66.08
2023-02-16T00:08:01.666Z,65.94
2023-02-16T00:10:38.749Z,66.34
2023-02-16T00:13:46.222Z,65.49
2023-02-16T00:16:23.350Z,65.62
2023-02-16T00:18:53.009Z,66.34
2023-02-16T00:21:22.204Z,66.28
2023-02-16T00:23:50.709Z,65.63
2023-02-16T00:26:25.129Z,65.74
2023-02-16T00:29:01.732Z,64.83
2023-02-16T00:31:34.387Z,65.65
2023-02-16T00:34:25.791Z,65.62
2023-02-16T00:36:54.108Z,65.07
2023-02-16T00:39:22.771Z,65.96
2023-02-16T00:41:54.830Z,65.18
2023-02-16T00:44:39.261Z,65.67
2023-02-16T00:47:29.045Z,64.74
2023-02-16T00:49:58.317Z,64.65
2023-02-16T00:52:38.727Z,65.56
2023-02-16T00:55:15.286Z,64.99
2023-02-16T00:57:49.365Z,64.64
2023-02-16T01:00:20.912Z,64.32
2023-02-16T01:02:51.481Z,64.58
2023-02-16T01:05:19.961Z,64.48
2023-02-16T01:08:07.089Z,64.80
2023-02-16T01:10:55.727Z,64.04
2023-02-16T01:13:24.912Z,64.47
2023-02-16T01:15:53.667Z,64.43
2023-02-16T01:18:23.239Z,62.99
2023-02-16T01:20:54.998Z,62.85
2023-02-16T01:23:23.285Z,63.75
2023-02-16T01:25:51.686Z,62.09
2023-02-16T01:28:27.678Z,62.97
2023-02-16T01:30:56.105Z,62.55
2023-02-16T01:33:24.501Z,63.24
2023-02-16T01:35:54.880Z,63.22
2023-02-16T01:38:27.146Z,62.70
2023-02-16T01:41:30.811Z,63.85
2023-02-16T01:44:07.050Z,63.71
2023-02-16T01:46:40.701Z,64.01
2023-02-16T01:49:17.923Z,62.74
2023-02-16T01:52:20.305Z,64.04
2023-02-16T01:54:54.246Z,61.78
2023-02-16T01:57:44.814Z,61.13
2023-02-16T02:00:33.957Z,62.23
2023-02-16T02:03:22.714Z,61.01
2023-02-16T02:05:52.634Z,61.97
2023-02-16T02:08:42.374Z,61.77
2023-02-16T02:11:33.473Z,62.49
2023-02-16T02:14:10.957Z,61.28
2023-02-16T02:16:39.332Z,61.68
2023-02-16T02:19:07.665Z,60.94
2023-02-16T02:22:02.786Z,57.71
2023-02-16T02:25:01.521Z,60.25
2023-02-16T02:28:13.357Z,58.77
2023-02-16T02:30:59.672Z,59.59
2023-02-16T02:34:03.115Z,61.13
2023-02-16T02:36:34.417Z,59.96
2023-02-16T02:39:28.847Z,58.66
2023-02-16T02:42:15.402Z,58.48
2023-02-16T02:45:03.336Z,58.63
2023-02-16T02:47:43.928Z,57.97
2023-02-16T02:50:36.750Z,57.28
2023-02-16T02:53:13.629Z,58.75
2023-02-16T02:56:06.800Z,58.51
2023-02-16T02:59:12.902Z,58.24
2023-02-16T03:01:48.234Z,58.37
2023-02-16T03:04:22.364Z,58.35
2023-02-16T03:06:55.107Z,57.57
2023-02-16T03:09:24.337Z,57.26
2023-02-16T03:12:15.391Z,58.25
2023-02-16T03:14:49.454Z,57.23
2023-02-16T03:17:40.478Z,56.45
2023-02-16T03:20:34.266Z,55.96
2023-02-16T03:23:22.790Z,56.47
2023-02-16T03:26:12.883Z,56.61
2023-02-16T03:29:03.053Z,56.30
2023-02-16T03:31:37.177Z,56.59
2023-02-16T03:34:07.107Z,55.74
2023-02-16T03:36:38.430Z,55.73
2023-02-16T03:39:08.185Z,55.34
2023-02-16T03:41:41.648Z,56.57
2023-02-16T03:44:10.493Z,56.24
2023-02-16T03:46:39.032Z,55.18
2023-02-16T03:49:07.478Z,55.01
2023-02-16T03:51:35.780Z,54.38
2023-02-16T03:54:04.353Z,53.92
2023-02-16T03:56:32.722Z,55.31
2023-02-16T03:59:01.160Z,55.25
2023-02-16T04:01:29.532Z,55.41
2023-02-16T04:03:57.961Z,55.57
2023-02-16T04:06:26.338Z,54.23
2023-02-16T04:08:55.520Z,54.96
2023-02-16T04:11:42.016Z,56.01
2023-02-16T04:14:10.458Z,54.56
2023-02-16T04:16:38.823Z,55.65
2023-02-16T04:19:08.519Z,55.02
2023-02-16T04:21:36.911Z,55.14
2023-02-16T04:24:06.757Z,53.84
2023-02-16T04:26:35.171Z,53.60
2023-02-16T04:29:03.471Z,53.90
2023-02-16T04:31:31.943Z,52.78
2023-02-16T04:34:00.348Z,53.50
2023-02-16T04:36:28.712Z,53.89
2023-02-16T04:38:57.020Z,53.35
2023-02-16T04:41:27.433Z,53.01
2023-02-16T04:43:55.744Z,52.92
2023-02-16T04:46:24.858Z,52.97
2023-02-16T04:48:53.481Z,53.47
2023-02-16T04:51:21.822Z,51.54
2023-02-16T04:53:50.158Z,53.72
2023-02-16T04:56:18.689Z,53.18
2023-02-16T04:58:47.046Z,50.36
2023-02-16T05:01:27.192Z,50.82
2023-02-16T05:03:56.038Z,51.38
2023-02-16T05:06:24.578Z,50.54
2023-02-16T05:08:52.854Z,51.71
2023-02-16T05:11:39.418Z,51.02
2023-02-16T05:14:26.139Z,51.41
2023-02-16T05:16:55.145Z,51.46
2023-02-16T05:19:23.449Z,52.75
2023-02-16T05:21:51.754Z,53.33
2023-02-16T05:24:20.082Z,51.59
2023-02-16T05:26:48.430Z,52.89
2023-02-16T05:29:16.794Z,52.65
2023-02-16T05:31:45.248Z,51.82
2023-02-16T05:34:13.723Z,52.74
2023-02-16T05:36:42.378Z,51.38
2023-02-16T05:39:10.975Z,50.42
2023-02-16T05:41:41.890Z,50.64
2023-02-16T05:44:10.981Z,51.48
2023-02-16T05:46:41.067Z,50.11
2023-02-16T05:49:10.351Z,50.90
2023-02-16T05:51:39.023Z,50.64
2023-02-16T05:54:08.019Z,49.60
2023-02-16T05:56:36.314Z,49.96
2023-02-16T05:59:04.725Z,49.34
2023-02-16T06:01:33.032Z,49.86
2023-02-16T06:04:01.441Z,49.05
2023-02-16T06:06:29.861Z,47.38
2023-02-16T06:08:58.179Z,48.53
2023-02-16T06:11:38.832Z,48.22
2023-02-16T06:14:19.337Z,48.11
2023-02-16T06:16:49.800Z,48.04
2023-02-16T06:19:19.348Z,49.48
2023-02-16T06:21:48.529Z,50.34
2023-02-16T06:24:16.909Z,49.26
2023-02-16T06:26:45.248Z,48.50
2023-02-16T06:29:13.592Z,49.15
2023-02-16T06:31:41.962Z,47.34
2023-02-16T06:34:10.424Z,47.54
2023-02-16T06:36:41.241Z,48.34
2023-02-16T06:39:11.330Z,49.93
2023-02-16T06:41:41.208Z,47.04
2023-02-16T06:44:14.952Z,47.23
2023-02-16T06:46:45.273Z,48.47
2023-02-16T06:49:19.258Z,47.16
2023-02-16T06:51:49.381Z,46.49
2023-02-16T06:54:19.268Z,47.64
2023-02-16T06:56:47.572Z,45.86
2023-02-16T06:59:15.949Z,45.93
2023-02-16T07:01:45.308Z,47.20
2023-02-16T07:04:14.654Z,47.09
2023-02-16T07:06:43.226Z,46.16
2023-02-16T07:09:12.752Z,47.08
2023-02-16T07:11:41.492Z,45.75
2023-02-16T07:14:10.011Z,46.19
2023-02-16T07:16:38.446Z,46.60
2023-02-16T07:19:07.860Z,46.29
2023-02-16T07:21:36.389Z,44.79
2023-02-16T07:24:05.410Z,45.83
2023-02-16T07:26:34.515Z,47.14
2023-02-16T07:29:02.921Z,46.35
2023-02-16T07:31:31.429Z,45.81
2023-02-16T07:33:59.884Z,46.10
2023-02-16T07:36:28.219Z,45.37
2023-02-16T07:38:56.573Z,44.56
2023-02-16T07:41:24.869Z,45.37
2023-02-16T07:43:53.169Z,46.75
2023-02-16T07:46:21.490Z,45.16
2023-02-16T07:48:51.093Z,46.34
2023-02-16T07:51:24.690Z,46.57
2023-02-16T07:53:53.948Z,45.63
2023-02-16T07:56:24.180Z,44.02
2023-02-16T07:58:57.197Z,45.07
2023-02-16T08:01:26.462Z,44.40
2023-02-16T08:03:55.258Z,45.03
2023-02-16T08:06:24.078Z,45.61
2023-02-16T08:08:52.412Z,45.02
2023-02-16T08:11:23.567Z,45.61
2023-02-16T08:13:52.992Z,46.27
2023-02-16T08:16:26.245Z,44.37
2023-02-16T08:18:57.224Z,45.83
2023-02-16T08:21:30.851Z,44.68
2023-02-16T08:24:05.844Z,44.62
2023-02-16T08:26:42.565Z,44.90
2023-02-16T08:29:13.553Z,44.81
2023-02-16T08:31:42.757Z,43.17
2023-02-16T08:34:11.606Z,44.01
2023-02-16T08:36:41.096Z,43.62
2023-02-16T08:39:15.798Z,44.77
2023-02-16T08:41:46.346Z,45.69
2023-02-16T08:44:16.476Z,45.24
2023-02-16T08:46:47.544Z,45.00
2023-02-16T08:49:18.376Z,44.79
2023-02-16T08:51:49.988Z,45.51
2023-02-16T08:54:20.824Z,45.64
2023-02-16T08:56:50.577Z,45.32
2023-02-16T08:59:21.031Z,45.75
2023-02-16T09:01:49.937Z,45.90
2023-02-16T09:04:20.739Z,45.27
2023-02-16T09:06:49.946Z,46.65
2023-02-16T09:09:18.936Z,47.37
2023-02-16T09:11:47.840Z,47.00
2023-02-16T09:14:19.386Z,46.50
2023-02-16T09:16:47.764Z,46.23
2023-02-16T09:19:21.750Z,46.21
2023-02-16T09:21:51.742Z,46.90
2023-02-16T09:24:20.350Z,45.45
2023-02-16T09:26:49.593Z,45.61
2023-02-16T09:29:19.099Z,46.16
2023-02-16T09:31:47.488Z,46.39
2023-02-16T09:34:19.290Z,47.16
2023-02-16T09:36:48.371Z,47.17
2023-02-16T09:39:18.021Z,47.79
2023-02-16T09:42:22.776Z,46.94
2023-02-16T09:44:55.754Z,46.13
2023-02-16T09:47:31.971Z,46.82
2023-02-16T09:50:07.444Z,47.26
2023-02-16T09:52:42.767Z,47.07
2023-02-16T09:55:17.686Z,47.59
2023-02-16T09:58:13.956Z,48.47
2023-02-16T10:00:51.830Z,47.35
2023-02-16T10:03:50.169Z,47.99
2023-02-16T10:06:49.182Z,47.47
2023-02-16T10:09:20.559Z,46.53
2023-02-16T10:12:06.523Z,47.98
2023-02-16T10:14:38.072Z,47.90
2023-02-16T10:17:25.186Z,48.21
2023-02-16T10:20:17.816Z,48.17
2023-02-16T10:23:04.446Z,48.45
2023-02-16T10:25:57.439Z,47.91
2023-02-16T10:28:42.501Z,46.83
2023-02-16T10:31:37.910Z,48.13
2023-02-16T10:34:24.384Z,48.07
2023-02-16T10:37:23.217Z,48.52
2023-02-16T10:40:24.074Z,47.75
2023-02-16T10:43:24.823Z,48.32
2023-02-16T10:45:55.601Z,48.65
2023-02-16T10:48:25.181Z,48.56
2023-02-16T10:51:07.142Z,49.06
2023-02-16T10:53:51.094Z,49.44
2023-02-16T10:56:19.344Z,49.03
2023-02-16T10:58:48.942Z,49.52
2023-02-16T11:01:19.861Z,50.01
2023-02-16T11:03:54.322Z,49.92
2023-02-16T11:06:26.561Z,49.88
2023-02-16T11:08:58.791Z,49.85
2023-02-16T11:11:28.236Z,50.41
2023-02-16T11:14:06.840Z,50.15
2023-02-16T11:16:36.977Z,50.34
2023-02-16T11:19:10.179Z,50.78
2023-02-16T11:21:49.478Z,50.90
2023-02-16T11:24:38.183Z,51.27
2023-02-16T11:27:21.001Z,51.64
2023-02-16T11:29:50.025Z,51.95
2023-02-16T11:32:22.435Z,51.58
2023-02-16T11:34:52.602Z,52.22
2023-02-16T11:37:32.003Z,52.11
2023-02-16T11:40:01.962Z,52.51
2023-02-16T11:42:32.483Z,52.90
2023-02-16T11:45:03.085Z,53.92
2023-02-16T11:47:41.378Z,54.03
2023-02-16T11:50:31.419Z,54.88
2023-02-16T11:53:23.778Z,55.63
2023-02-16T11:55:52.281Z,55.20
2023-02-16T11:58:27.096Z,56.00
2023-02-16T12:01:10.261Z,54.86
2023-02-16T12:03:51.350Z,54.25
2023-02-16T12:06:37.909Z,53.62
2023-02-16T12:09:33.788Z,53.67
2023-02-16T12:12:17.558Z,52.67
2023-02-16T12:15:22.287Z,53.20
2023-02-16T12:18:11.961Z,52.67
2023-02-16T12:21:13.999Z,51.67
2023-02-16T12:24:11.588Z,53.09
2023-02-16T12:27:15.802Z,52.14
2023-02-16T12:29:59.063Z,51.64
2023-02-16T12:32:38.478Z,51.70
2023-02-16T12:35:21.635Z,51.68
2023-02-16T12:38:20.270Z,52.06
2023-02-16T12:41:20.496Z,52.15
2023-02-16T12:44:26.221Z,52.80
2023-02-16T12:47:07.248Z,51.92
2023-02-16T12:49:57.411Z,52.39
2023-02-16T12:52:48.181Z,51.97
2023-02-16T12:55:44.162Z,52.40
2023-02-16T12:58:21.015Z,52.87
2023-02-16T13:01:26.684Z,53.29
2023-02-16T13:04:15.438Z,52.61
2023-02-16T13:06:47.437Z,52.81
2023-02-16T13:09:49.148Z,52.64
2023-02-16T13:12:40.596Z,53.01
2023-02-16T13:15:23.838Z,53.15
2023-02-16T13:18:03.380Z,53.13
2023-02-16T13:20:33.055Z,52.94
2023-02-16T13:23:38.931Z,52.99
2023-02-16T13:26:33.304Z,53.28
2023-02-16T13:29:11.773Z,53.05
2023-02-16T13:31:48.921Z,52.98
2023-02-16T13:34:53.421Z,53.34
2023-02-16T13:37:39.663Z,53.76
2023-02-16T13:40:13.915Z,53.64
2023-02-16T13:43:02.828Z,53.86
2023-02-16T13:45:38.660Z,54.06
2023-02-16T13:48:23.667Z,53.98
2023-02-16T13:51:04.812Z,54.23
2023-02-16T13:53:43.451Z,54.82
2023-02-16T13:56:25.105Z,54.39
2023-02-16T13:58:54.430Z,54.90
2023-02-16T14:01:44.015Z,54.60
2023-02-16T14:04:24.568Z,54.77
2023-02-16T14:07:05.661Z,54.77
2023-02-16T14:09:40.277Z,54.84
2023-02-16T14:12:15.388Z,54.67
2023-02-16T14:14:43.653Z,54.70
2023-02-16T14:17:22.503Z,55.14
2023-02-16T14:20:06.219Z,55.36
2023-02-16T14:22:40.303Z,55.65
2023-02-16T14:25:29.945Z,55.67
2023-02-16T14:28:06.216Z,55.43
2023-02-16T14:30:40.634Z,55.70
2023-02-16T14:33:35.175Z,55.79
2023-02-16T14:36:03.444Z,56.33
2023-02-16T14:38:38.303Z,56.43
2023-02-16T14:41:14.661Z,56.62
2023-02-16T14:43:51.680Z,56.59
2023-02-16T14:46:49.388Z,56.64
2023-02-16T14:49:47.637Z,56.45
2023-02-16T14:52:18.610Z,56.78
2023-02-16T14:55:24.443Z,57.31
2023-02-16T14:57:55.457Z,57.05
2023-02-16T15:00:34.584Z,57.37
2023-02-16T15:03:14.909Z,57.37
2023-02-16T15:05:50.755Z,58.10
2023-02-16T15:08:24.916Z,57.61
2023-02-16T15:10:57.495Z,58.03
2023-02-16T15:13:29.018Z,57.81
2023-02-16T15:16:01.329Z,57.86
2023-02-16T15:18:54.738Z,57.81
2023-02-16T15:21:29.281Z,58.35
2023-02-16T15:24:02.434Z,57.97
2023-02-16T15:26:36.796Z,57.69
2023-02-16T15:29:24.110Z,58.05
2023-02-16T15:31:52.781Z,57.74
2023-02-16T15:34:31.828Z,58.22
2023-02-16T15:37:01.676Z,58.42
2023-02-16T15:39:51.931Z,58.15
2023-02-16T15:42:30.623Z,58.08
2023-02-16T15:44:59.055Z,57.70
2023-02-16T15:47:28.263Z,57.81
2023-02-16T15:49:56.589Z,57.81
2023-02-16T15:52:36.644Z,58.08
2023-02-16T15:55:10.063Z,58.79
2023-02-16T15:57:41.707Z,58.22
2023-02-16T16:00:20.330Z,58.75
2023-02-16T16:02:55.457Z,58.59
2023-02-16T16:05:30.210Z,58.94
2023-02-16T16:07:58.771Z,57.81
2023-02-16T16:10:31.732Z,58.12
2023-02-16T16:13:04.994Z,58.88
2023-02-16T16:15:40.028Z,58.08
2023-02-16T16:18:28.186Z,58.98
2023-02-16T16:21:03.484Z,58.76
2023-02-16T16:23:31.917Z,58.44
2023-02-16T16:26:03.715Z,59.16
2023-02-16T16:28:32.093Z,58.19
2023-02-16T16:31:15.631Z,58.63
2023-02-16T16:34:00.292Z,58.45
2023-02-16T16:36:36.725Z,58.84
2023-02-16T16:39:21.570Z,58.97
2023-02-16T16:42:19.762Z,59.01
2023-02-16T16:45:00.746Z,59.31
2023-02-16T16:47:42.063Z,59.46
2023-02-16T16:50:16.147Z,59.39
2023-02-16T16:52:45.868Z,59.53
2023-02-16T16:55:23.299Z,59.54
2023-02-16T16:57:54.251Z,59.38
2023-02-16T17:00:23.983Z,61.59
2023-02-16T17:02:53.324Z,59.75
2023-02-16T17:05:22.197Z,59.81
2023-02-16T17:07:51.104Z,59.67
2023-02-16T17:10:21.569Z,59.80
2023-02-16T17:12:56.916Z,60.40
2023-02-16T17:16:02.514Z,60.18
2023-02-16T17:18:32.089Z,59.97
2023-02-16T17:21:00.679Z,59.80
2023-02-16T17:23:28.973Z,59.97
2023-02-16T17:25:57.335Z,59.93
2023-02-16T17:28:25.679Z,60.28
2023-02-16T17:30:53.964Z,60.40
2023-02-16T17:33:22.238Z,60.47
2023-02-16T17:35:50.551Z,60.58
2023-02-16T17:38:21.553Z,60.46
2023-02-16T17:40:55.304Z,60.83
2023-02-16T17:43:24.878Z,61.14
2023-02-16T17:45:55.828Z,61.27
2023-02-16T17:48:28.656Z,61.28
2023-02-16T17:51:00.140Z,62.02
2023-02-16T17:53:29.198Z,64.29
2023-02-16T17:55:59.041Z,63.35
2023-02-16T17:58:27.676Z,64.26
2023-02-16T18:00:56.069Z,64.44
2023-02-16T18:03:26.011Z,64.20
2023-02-16T18:05:54.850Z,64.29
2023-02-16T18:08:23.410Z,64.03
2023-02-16T18:10:55.193Z,65.32
2023-02-16T18:13:23.477Z,65.32
2023-02-16T18:15:51.831Z,65.53
2023-02-16T18:18:20.424Z,66.11
2023-02-16T18:20:49.109Z,67.02
2023-02-16T18:23:17.574Z,66.17
2023-02-16T18:25:46.626Z,65.98
2023-02-16T18:28:19.289Z,65.43
2023-02-16T18:30:50.121Z,65.40
2023-02-16T18:33:21.905Z,66.30
2023-02-16T18:35:53.688Z,65.19
2023-02-16T18:38:22.916Z,65.11
2023-02-16T18:40:52.975Z,64.29
2023-02-16T18:43:22.054Z,63.93
2023-02-16T18:45:52.950Z,63.57
2023-02-16T18:48:21.332Z,63.40
2023-02-16T18:50:49.682Z,63.05
2023-02-16T18:53:17.984Z,64.15
2023-02-16T18:55:46.332Z,63.75
2023-02-16T18:58:15.870Z,64.18
2023-02-16T19:00:44.990Z,63.76
2023-02-16T19:03:13.605Z,63.52
2023-02-16T19:05:42.359Z,64.22
2023-02-16T19:08:10.649Z,64.88
2023-02-16T19:10:38.957Z,64.99
2023-02-16T19:13:08.241Z,65.81
2023-02-16T19:15:39.700Z,65.78
2023-02-16T19:18:07.975Z,66.90
2023-02-16T19:20:36.951Z,65.53
2023-02-16T19:23:05.300Z,64.59
2023-02-16T19:25:33.645Z,65.96
2023-02-16T19:28:01.953Z,67.47
2023-02-16T19:30:30.591Z,67.36
2023-02-16T19:32:59.405Z,67.50
2023-02-16T19:35:27.694Z,68.27
2023-02-16T19:37:56.824Z,66.97
2023-02-16T19:40:25.129Z,66.89
2023-02-16T19:42:53.521Z,65.82
2023-02-16T19:45:21.856Z,66.93
2023-02-16T19:47:52.309Z,67.36
2023-02-16T19:50:20.771Z,68.36
2023-02-16T19:52:49.067Z,68.54
2023-02-16T19:55:17.569Z,67.51
2023-02-16T19:57:45.841Z,67.68
2023-02-16T20:00:15.069Z,67.23
2023-02-16T20:02:43.398Z,68.76
2023-02-16T20:05:12.224Z,69.47
2023-02-16T20:07:40.666Z,70.65
2023-02-16T20:10:09.561Z,70.53
2023-02-16T20:12:38.591Z,71.23
2023-02-16T20:15:07.502Z,69.88
2023-02-16T20:17:35.796Z,71.61
2023-02-16T20:20:05.019Z,71.89
2023-02-16T20:22:33.500Z,72.13
2023-02-16T20:25:01.797Z,72.04
2023-02-16T20:27:30.113Z,71.74
2023-02-16T20:29:58.386Z,72.34
2023-02-16T20:32:28.200Z,71.94
2023-02-16T20:34:56.573Z,71.92
2023-02-16T20:37:24.934Z,71.32
2023-02-16T20:39:53.300Z,71.87
2023-02-16T20:42:21.585Z,71.74
2023-02-16T20:44:49.907Z,72.26
2023-02-16T20:47:18.422Z,72.30
2023-02-16T20:49:46.718Z,71.73
2023-02-16T20:52:15.460Z,68.40
2023-02-16T20:54:43.912Z,70.12
2023-02-16T20:57:25.647Z,70.04
2023-02-16T20:59:55.280Z,69.94
2023-02-16T21:02:24.045Z,69.86
2023-02-16T21:04:52.463Z,69.62
2023-02-16T21:07:20.803Z,69.56
2023-02-16T21:09:49.118Z,70.38
2023-02-16T21:12:17.429Z,71.89
2023-02-16T21:14:45.755Z,72.29
2023-02-16T21:17:14.087Z,71.06
2023-02-16T21:19:42.392Z,70.48
2023-02-16T21:22:10.971Z,69.70
2023-02-16T21:24:41.633Z,68.73
2023-02-16T21:27:10.036Z,69.04
2023-02-16T21:29:39.133Z,69.03
2023-02-16T21:32:07.522Z,68.70
2023-02-16T21:34:36.652Z,70.03
2023-02-16T21:37:05.752Z,70.42
2023-02-16T21:39:52.361Z,70.63
2023-02-16T21:42:20.709Z,69.58
2023-02-16T21:44:50.893Z,69.96
2023-02-16T21:47:37.640Z,71.83
2023-02-16T21:50:06.093Z,70.90
2023-02-16T21:52:34.379Z,69.66
2023-02-16T21:55:21.078Z,68.19
2023-02-16T21:57:49.946Z,68.76
2023-02-16T22:00:18.476Z,69.37
2023-02-16T22:02:46.763Z,69.28
2023-02-16T22:05:15.166Z,68.02
2023-02-16T22:07:43.520Z,69.56
2023-02-16T22:10:12.004Z,69.89
2023-02-16T22:12:40.287Z,69.65
2023-02-16T22:15:08.892Z,69.17
2023-02-16T22:17:37.209Z,68.88
2023-02-16T22:20:05.992Z,68.47
2023-02-16T22:22:34.698Z,66.73
2023-02-16T22:25:03.066Z,67.27
2023-02-16T22:27:31.377Z,69.02
2023-02-16T22:29:59.693Z,69.68
2023-02-16T22:32:28.032Z,69.40
2023-02-16T22:34:56.360Z,69.94
2023-02-16T22:37:24.832Z,68.30
2023-02-16T22:39:55.982Z,69.87
2023-02-16T22:42:24.546Z,70.62
2023-02-16T22:44:52.867Z,71.07
2023-02-16T22:47:21.336Z,71.03
2023-02-16T22:49:49.652Z,69.98
2023-02-16T22:52:18.004Z,70.00
2023-02-16T22:54:46.463Z,70.01
2023-02-16T22:57:14.755Z,70.38
2023-02-16T22:59:43.040Z,70.05
2023-02-16T23:02:11.380Z,69.83
2023-02-16T23:04:41.192Z,69.39
2023-02-16T23:07:10.669Z,70.08
2023-02-16T23:09:39.360Z,70.54
2023-02-16T23:12:07.822Z,69.78
2023-02-16T23:14:38.954Z,69.13
2023-02-16T23:17:07.253Z,70.24
2023-02-16T23:19:35.538Z,68.18
2023-02-16T23:22:03.847Z,67.35
2023-02-16T23:24:32.137Z,68.01
2023-02-16T23:27:00.510Z,67.69
2023-02-16T23:29:29.012Z,69.34
2023-02-16T23:31:57.377Z,70.05
2023-02-16T23:34:25.701Z,70.42
2023-02-16T23:36:54.067Z,71.04
2023-02-16T23:39:22.339Z,68.71
2023-02-16T23:41:50.676Z,69.85
2023-02-16T23:44:19.326Z,70.08
2023-02-16T23:46:47.673Z,70.75
2023-02-16T23:49:16.121Z,71.19
2023-02-16T23:51:44.406Z,71.16
2023-02-16T23:54:12.870Z,68.51
2023-02-16T23:56:42.172Z,68.42
2023-02-16T23:59:10.524Z,69.58
